• Join FlightAware (Why Join?)
  • Login
  • US Flag 
12:51AM EDT


 

Airport Tracker/Info


-or-


 

Live Flight TrackerFlight Track Log ✈ JBU56 ✈ 22-Apr-2013 ✈ KJFK - KBTV

Flight Track Log - Related Links

Times and Time Zones

All times are in EDT time to prevent confusion due to time zone crossing. See the JBU56 flight status page for this flight to view local times or setup timezone preferences in your user account.

Time Position Orientation Groundspeed Altitude Reporting Facility
EDT Latitude Longitude Course Direction KTS MPH feet Rate Location/Type
09:22AM 40.6333 -73.7333 14° North 168 193 3,000  Level New York TRACON
09:22AM 40.6333 -73.6667 90° East 229 264 5,200 3,240 Climbing New York TRACON
09:23AM 40.8826 -73.6333 North  Level FlightAware Approximate
09:24AM 40.9719 -73.5891 21° North  Level FlightAware Approximate
09:24AM 40.7000 -73.6167 30° Northeast 276 318 9,500  Level New York TRACON
09:25AM 41.0591 -73.5385 27° Northeast  Level FlightAware Approximate
09:25AM 40.8342 -73.5428 23° Northeast 311 358 13,000  Level Boston Center
09:26AM 41.1443 -73.4816 27° Northeast  Level FlightAware Approximate
09:26AM 40.9303 -73.5114 14° North 336 387 15,900  Level Boston Center
09:27AM 41.2336 -73.4388 14° North  Level FlightAware Approximate
09:27AM 41.0244 -73.4772 15° North 369 425 18,300  Level Boston Center
09:28AM 41.1478 -73.4353 14° North 398 458 19,500 1,320 Climbing Boston Center
09:29AM 41.2628 -73.3928 16° North 415 478 21,000 720 Climbing Boston Center
09:30AM 41.3814 -73.3833 North 415 478 21,000  Level Boston Center
09:31AM 41.5003 -73.3742 North 425 489 21,000  Level Boston Center
09:32AM 41.6172 -73.3675 North 425 489 21,000  Level Boston Center
09:33AM 41.7358 -73.3636 North 420 483 21,000  Level Boston Center
09:34AM 41.8547 -73.3542 North 420 483 21,000  Level Boston Center
09:35AM 41.9736 -73.3478 North 420 483 21,000  Level Boston Center
09:36AM 42.0925 -73.3408 North 420 483 21,000  Level Boston Center
09:37AM 42.2344 -73.3289 North 420 483 21,000 -120 Level Boston Center
09:38AM 42.3281 -73.3275 North 420 483 20,800 -420 Descending Boston Center
09:39AM 42.4597 -73.3069 North 426 490 20,200 -420 Descending Boston Center
09:40AM 42.5764 -73.2972 North 426 490 20,000 -120 Descending Boston Center
09:41AM 42.6847 -73.3017 358° North 421 484 20,000  Level Boston Center
09:42AM 42.8119 -73.2919 North 416 479 20,000  Level Boston Center
09:43AM 42.9267 -73.2850 North 416 479 20,000  Level Boston Center
09:44AM 43.0414 -73.2781 North 416 479 20,000 -120 Level Boston Center
09:45AM 43.1561 -73.2683 North 416 479 19,800 -720 Descending Boston Center
09:47AM 43.3000 -73.2589 North 404 465 18,500 -900 Descending Boston Center
09:48AM 43.4103 -73.2489 North 404 465 17,900 -540 Descending Boston Center
09:49AM 43.5208 -73.2447 North 399 459 17,500 -1,500 Descending Boston Center
09:50AM 43.6292 -73.2347 North 399 459 15,000 -2,340 Descending Boston Center
09:51AM 43.7336 -73.2303 North 385 443 12,900 -1,920 Descending Boston Center
09:52AM 43.8358 -73.2200 North 375 432 11,200 -1,020 Descending Boston Center
09:53AM 43.9336 -73.2128 North 362 417 10,900 -540 Descending Boston Center
09:54AM 44.0192 -73.2108 North 332 382 10,200 -1,080 Descending Boston Center
09:55AM 44.0961 -73.2408 344° North 297 342 8,600 -1,740 Descending Boston Center
09:56AM 44.1811 -73.2739 344° North 281 323 6,400 -2,040 Descending Boston Center
09:57AM 44.2539 -73.3008 345° North 281 323 4,600 -1,560 Descending Boston Center
09:58AM 44.3289 -73.3253 347° North 281 323 3,000 -960 Descending Boston Center
09:59AM 44.4225 -73.3236 North 267 307 2,600 -540 Descending Boston Center
10:00AM 44.4811 -73.2897 22° Northeast 231 266 2,000 -480 Descending Boston Center
10:01AM 44.5169 -73.2464 41° Northeast 186 214 1,700 -540 Descending Boston Center
10:02AM 44.5025 -73.2025 115° Southeast 125 144 1,000 -720 Descending Boston Center